Olst, Netherlands
Current Conditions -  °F | °C
As of 1:55 PM on Wednesday 22 Oct 2014 (Local Time) from EHDL Reporting Station
Scattered Clouds Scattered Clouds  
Wind Chill: 54°   Ceiling: Unl
Heat Index: 54°   Visibility: 6mi
Dew Point: 46°   Wind: 14mph
Humidity: 77%   Direction: 320°NW
Pressure: 30.03"   Gusts: NA
Location:  52.34°N, 6.11°E
Report Text: EHDL 221155Z AUTO 32012KT 9999 FEW022 SCT031 12/08 Q1017 BLU
Loading
Personal Weather Stations






























Interactive Weather Map
Tropical Storm Tracking
New forecast layout! Learn more

10-Day Weather Forecast

Advertisements
Track Severe Weather on mobile